BAF555 EBBR-EDDH
Flight info
| Callsign | BAF555 |
|---|---|
| Flight time | N/A |
| Altitude | 36000 |
| Route | NIK2X NIK L191 VICOT N873 DOFMU/N0460F380 N873 SPY/N0459F370 N873 ANDIK M105 RIBSO RIBSO7A |
| Aircraft | A400/H-SDE3FGHIRWY/L4T |
Departure
| Time | 2026-05-07 15:20 |
|---|---|
| Airport | Brussels Airport (EBBR) |
Arrival
| Time | N/A |
|---|---|
| Airport | Hamburg Helmut Schmidt Airport (EDDH) |
| Time | Latitude | Longitude | Altitude | Speed | Heading |
|---|---|---|---|---|---|
| 2026-05-07 14:53 | 50.91476 | 4.49690 | 207 ft | 0 kts | 330° |
| 2026-05-07 15:17 | 50.91493 | 4.49676 | 209 ft | 6 kts | 335° |
| 2026-05-07 15:17 | 50.91525 | 4.49704 | 201 ft | 4 kts | 71° |
| 2026-05-07 15:17 | 50.91512 | 4.49731 | 202 ft | 5 kts | 133° |
| 2026-05-07 15:17 | 50.91477 | 4.49768 | 201 ft | 7 kts | 150° |
| 2026-05-07 15:18 | 50.91469 | 4.49837 | 194 ft | 8 kts | 71° |
| 2026-05-07 15:18 | 50.91456 | 4.49916 | 203 ft | 8 kts | 127° |
| 2026-05-07 15:18 | 50.91402 | 4.49976 | 197 ft | 11 kts | 148° |
| 2026-05-07 15:18 | 50.91310 | 4.50048 | 201 ft | 18 kts | 155° |
| 2026-05-07 15:19 | 50.91200 | 4.50074 | 200 ft | 16 kts | 222° |
| 2026-05-07 15:19 | 50.91134 | 4.49857 | 198 ft | 51 kts | 245° |
| 2026-05-07 15:19 | 50.90835 | 4.48824 | 207 ft | 153 kts | 245° |
| 2026-05-07 15:19 | 50.90325 | 4.47096 | 673 ft | 186 kts | 245° |
| 2026-05-07 15:20 | 50.89923 | 4.45123 | 1493 ft | 196 kts | 270° |
| 2026-05-07 15:20 | 50.90431 | 4.43155 | 2505 ft | 200 kts | 316° |
| 2026-05-07 15:20 | 50.91582 | 4.41908 | 3621 ft | 202 kts | 332° |
| 2026-05-07 15:20 | 50.92847 | 4.40860 | 4755 ft | 210 kts | 333° |
| 2026-05-07 15:21 | 50.94148 | 4.39763 | 5958 ft | 213 kts | 331° |
| 2026-05-07 15:21 | 50.95456 | 4.38603 | 7296 ft | 216 kts | 329° |
| 2026-05-07 15:21 | 50.96766 | 4.37399 | 8671 ft | 219 kts | 328° |
| 2026-05-07 15:21 | 50.98094 | 4.36150 | 10043 ft | 225 kts | 327° |
| 2026-05-07 15:22 | 50.99451 | 4.34860 | 11272 ft | 229 kts | 327° |
| 2026-05-07 15:22 | 51.00831 | 4.33540 | 12596 ft | 233 kts | 327° |
| 2026-05-07 15:22 | 51.02229 | 4.32198 | 13942 ft | 236 kts | 327° |
| 2026-05-07 15:22 | 51.03646 | 4.30836 | 15149 ft | 240 kts | 327° |
| 2026-05-07 15:23 | 51.05089 | 4.29445 | 16387 ft | 245 kts | 327° |
| 2026-05-07 15:23 | 51.06556 | 4.28029 | 17651 ft | 249 kts | 327° |
| 2026-05-07 15:23 | 51.08053 | 4.26584 | 18875 ft | 254 kts | 326° |
| 2026-05-07 15:23 | 51.09558 | 4.25129 | 19996 ft | 259 kts | 326° |
| 2026-05-07 15:24 | 51.11111 | 4.23627 | 21138 ft | 264 kts | 326° |
| 2026-05-07 15:24 | 51.12699 | 4.22089 | 22304 ft | 270 kts | 326° |
| 2026-05-07 15:24 | 51.14319 | 4.20519 | 23480 ft | 275 kts | 326° |
| 2026-05-07 15:24 | 51.15969 | 4.18912 | 24487 ft | 280 kts | 324° |
| 2026-05-07 15:25 | 51.17605 | 4.17184 | 25454 ft | 284 kts | 322° |
| 2026-05-07 15:25 | 51.19227 | 4.15337 | 26411 ft | 288 kts | 321° |
| 2026-05-07 15:25 | 51.20849 | 4.13418 | 27344 ft | 292 kts | 320° |
| 2026-05-07 15:25 | 51.22490 | 4.11447 | 28269 ft | 296 kts | 320° |
| 2026-05-07 15:26 | 51.24176 | 4.09498 | 29155 ft | 302 kts | 324° |
| 2026-05-07 15:26 | 51.25990 | 4.07826 | 30003 ft | 308 kts | 330° |
| 2026-05-07 15:26 | 51.27992 | 4.06514 | 30745 ft | 313 kts | 339° |
| 2026-05-07 15:26 | 51.30120 | 4.05684 | 31475 ft | 319 kts | 348° |
| 2026-05-07 15:27 | 51.32368 | 4.05319 | 31900 ft | 333 kts | 354° |
| 2026-05-07 15:27 | 51.34762 | 4.05152 | 31988 ft | 354 kts | 356° |
| 2026-05-07 15:27 | 51.37306 | 4.05088 | 31982 ft | 375 kts | 357° |
| 2026-05-07 15:27 | 51.39980 | 4.05071 | 31975 ft | 392 kts | 358° |
| 2026-05-07 15:28 | 51.42732 | 4.05065 | 31980 ft | 406 kts | 358° |
| 2026-05-07 15:28 | 51.45601 | 4.05203 | 31980 ft | 419 kts | 3° |
| 2026-05-07 15:28 | 51.48516 | 4.05985 | 31977 ft | 431 kts | 12° |
| 2026-05-07 15:28 | 51.51391 | 4.07535 | 31980 ft | 440 kts | 20° |
| 2026-05-07 15:29 | 51.57106 | 4.11488 | 31972 ft | 453 kts | 23° |
| 2026-05-07 15:29 | 51.62830 | 4.15804 | 32660 ft | 442 kts | 24° |
| 2026-05-07 15:30 | 51.65545 | 4.17873 | 33822 ft | 423 kts | 24° |
| 2026-05-07 15:30 | 51.68172 | 4.19867 | 34578 ft | 413 kts | 24° |
| 2026-05-07 15:30 | 51.70718 | 4.21787 | 35286 ft | 403 kts | 24° |
| 2026-05-07 15:30 | 51.73233 | 4.23734 | 36032 ft | 393 kts | 27° |
| 2026-05-07 15:31 | 51.75591 | 4.25900 | 36658 ft | 388 kts | 30° |
| 2026-05-07 15:31 | 51.77912 | 4.28138 | 36955 ft | 391 kts | 30° |
| 2026-05-07 15:31 | 51.82645 | 4.32841 | 36999 ft | 408 kts | 31° |
| 2026-05-07 15:32 | 51.87516 | 4.37763 | 36998 ft | 422 kts | 31° |
| 2026-05-07 15:32 | 51.92567 | 4.42881 | 36996 ft | 434 kts | 31° |
| 2026-05-07 15:33 | 51.97747 | 4.48134 | 36998 ft | 443 kts | 31° |
| 2026-05-07 15:33 | 52.03011 | 4.53481 | 36994 ft | 449 kts | 31° |
| 2026-05-07 15:34 | 52.08343 | 4.58912 | 36989 ft | 455 kts | 31° |
| 2026-05-07 15:34 | 52.13700 | 4.64384 | 36988 ft | 458 kts | 31° |
| 2026-05-07 15:35 | 52.19124 | 4.69941 | 37000 ft | 461 kts | 32° |
| 2026-05-07 15:35 | 52.24569 | 4.75536 | 36995 ft | 463 kts | 32° |
| 2026-05-07 15:36 | 52.29958 | 4.81090 | 36983 ft | 444 kts | 32° |
| 2026-05-07 15:36 | 52.32506 | 4.83723 | 36981 ft | 424 kts | 32° |
| 2026-05-07 15:36 | 52.34930 | 4.86231 | 36986 ft | 412 kts | 32° |
| 2026-05-07 15:37 | 52.39718 | 4.91194 | 36991 ft | 404 kts | 32° |
| 2026-05-07 15:37 | 52.44476 | 4.96135 | 36995 ft | 403 kts | 32° |
| 2026-05-07 15:38 | 52.49239 | 5.01096 | 36998 ft | 411 kts | 32° |
| 2026-05-07 15:38 | 52.54106 | 5.06177 | 36992 ft | 416 kts | 32° |
| 2026-05-07 15:39 | 52.58966 | 5.11266 | 36996 ft | 416 kts | 32° |
| 2026-05-07 15:39 | 52.63857 | 5.16401 | 36993 ft | 416 kts | 32° |
| 2026-05-07 15:40 | 52.68701 | 5.21656 | 36995 ft | 416 kts | 37° |
| 2026-05-07 15:40 | 52.72871 | 5.28208 | 36994 ft | 414 kts | 52° |
| 2026-05-07 15:41 | 52.75870 | 5.36299 | 37002 ft | 413 kts | 68° |
| 2026-05-07 15:41 | 52.77936 | 5.45090 | 36998 ft | 413 kts | 71° |
| 2026-05-07 15:42 | 52.79834 | 5.54053 | 37001 ft | 413 kts | 72° |
| 2026-05-07 15:42 | 52.81715 | 5.63043 | 37004 ft | 414 kts | 71° |
| 2026-05-07 15:43 | 52.83613 | 5.72033 | 37003 ft | 414 kts | 71° |
| 2026-05-07 15:43 | 52.85515 | 5.81013 | 37000 ft | 414 kts | 71° |
| 2026-05-07 15:44 | 52.87415 | 5.90005 | 36992 ft | 413 kts | 71° |
| 2026-05-07 15:44 | 52.89300 | 5.98969 | 36989 ft | 412 kts | 72° |
| 2026-05-07 15:45 | 52.91169 | 6.07904 | 36992 ft | 411 kts | 72° |
| 2026-05-07 15:45 | 52.93040 | 6.16892 | 36994 ft | 413 kts | 72° |
| 2026-05-07 15:46 | 52.95843 | 6.30429 | 36983 ft | 413 kts | 72° |
| 2026-05-07 15:47 | 52.97691 | 6.39401 | 36985 ft | 414 kts | 72° |
| 2026-05-07 15:47 | 52.99544 | 6.48440 | 36988 ft | 413 kts | 72° |
| 2026-05-07 15:48 | 53.01389 | 6.57484 | 36992 ft | 413 kts | 72° |
| 2026-05-07 15:48 | 53.03229 | 6.66543 | 36991 ft | 414 kts | 72° |
| 2026-05-07 15:49 | 53.05061 | 6.75608 | 36992 ft | 414 kts | 72° |
| 2026-05-07 15:49 | 53.06887 | 6.84681 | 36993 ft | 413 kts | 72° |
| 2026-05-07 15:50 | 53.08705 | 6.93753 | 36989 ft | 413 kts | 72° |
| 2026-05-07 15:50 | 53.10501 | 7.02761 | 37036 ft | 412 kts | 72° |
| 2026-05-07 15:51 | 53.12306 | 7.11858 | 37051 ft | 414 kts | 72° |
| 2026-05-07 15:51 | 53.13211 | 7.16434 | 36889 ft | 411 kts | 72° |
| 2026-05-07 15:51 | 53.14083 | 7.20849 | 36647 ft | 400 kts | 72° |
| 2026-05-07 15:51 | 53.14936 | 7.25182 | 36422 ft | 388 kts | 72° |
| 2026-05-07 15:52 | 53.15762 | 7.29393 | 36192 ft | 378 kts | 72° |
| 2026-05-07 15:52 | 53.16570 | 7.33516 | 35842 ft | 371 kts | 72° |
| 2026-05-07 15:52 | 53.17363 | 7.37577 | 35515 ft | 365 kts | 72° |
| 2026-05-07 15:52 | 53.18142 | 7.41578 | 35143 ft | 360 kts | 72° |
| 2026-05-07 15:53 | 53.18909 | 7.45525 | 34780 ft | 356 kts | 72° |
| 2026-05-07 15:53 | 53.19665 | 7.49422 | 34434 ft | 351 kts | 72° |
| 2026-05-07 15:53 | 53.20411 | 7.53277 | 34084 ft | 347 kts | 72° |
| 2026-05-07 15:53 | 53.21147 | 7.57083 | 33649 ft | 343 kts | 72° |
| 2026-05-07 15:54 | 53.21876 | 7.60863 | 33182 ft | 341 kts | 72° |
| 2026-05-07 15:54 | 53.22603 | 7.64633 | 32702 ft | 340 kts | 72° |
| 2026-05-07 15:54 | 53.23323 | 7.68378 | 32230 ft | 338 kts | 72° |
| 2026-05-07 15:54 | 53.24033 | 7.72074 | 31727 ft | 339 kts | 72° |
| 2026-05-07 15:55 | 53.24756 | 7.75846 | 31208 ft | 341 kts | 72° |
| 2026-05-07 15:55 | 53.25475 | 7.79606 | 30800 ft | 339 kts | 72° |
| 2026-05-07 15:55 | 53.26192 | 7.83357 | 30399 ft | 337 kts | 72° |
| 2026-05-07 15:55 | 53.26900 | 7.87074 | 30023 ft | 334 kts | 72° |
| 2026-05-07 15:56 | 53.27602 | 7.90764 | 29573 ft | 332 kts | 73° |
| 2026-05-07 15:56 | 53.28300 | 7.94440 | 29145 ft | 330 kts | 73° |
| 2026-05-07 15:56 | 53.28989 | 7.98079 | 28748 ft | 327 kts | 73° |
| 2026-05-07 15:56 | 53.29675 | 8.01704 | 28321 ft | 326 kts | 73° |
| 2026-05-07 15:57 | 53.30346 | 8.05260 | 27942 ft | 323 kts | 73° |
| 2026-05-07 15:57 | 53.31018 | 8.08829 | 27572 ft | 321 kts | 73° |
| 2026-05-07 15:57 | 53.31686 | 8.12381 | 27177 ft | 320 kts | 73° |
| 2026-05-07 15:57 | 53.32352 | 8.15915 | 26829 ft | 317 kts | 72° |
| 2026-05-07 15:58 | 53.33067 | 8.19396 | 26469 ft | 315 kts | 70° |
| 2026-05-07 15:58 | 53.33835 | 8.22832 | 26091 ft | 315 kts | 69° |
| 2026-05-07 15:58 | 53.34626 | 8.26233 | 25762 ft | 312 kts | 69° |
| 2026-05-07 15:58 | 53.35153 | 8.28469 | 25542 ft | 311 kts | 68° |
| 2026-05-07 15:59 | 53.35944 | 8.31827 | 25192 ft | 310 kts | 69° |
| 2026-05-07 15:59 | 53.36728 | 8.35174 | 24867 ft | 308 kts | 69° |
| 2026-05-07 15:59 | 53.37505 | 8.38517 | 24534 ft | 307 kts | 69° |
| 2026-05-07 15:59 | 53.38273 | 8.41843 | 24220 ft | 305 kts | 69° |
| 2026-05-07 16:00 | 53.39034 | 8.45157 | 23918 ft | 304 kts | 69° |
| 2026-05-07 16:00 | 53.39788 | 8.48457 | 23594 ft | 303 kts | 69° |
| 2026-05-07 16:00 | 53.40571 | 8.51730 | 23228 ft | 302 kts | 67° |
| 2026-05-07 16:00 | 53.41404 | 8.54943 | 22900 ft | 299 kts | 66° |
| 2026-05-07 16:01 | 53.42261 | 8.58118 | 22550 ft | 298 kts | 65° |
| 2026-05-07 16:01 | 53.43126 | 8.61265 | 22231 ft | 296 kts | 65° |
| 2026-05-07 16:01 | 53.43984 | 8.64383 | 21920 ft | 293 kts | 65° |
| 2026-05-07 16:01 | 53.44836 | 8.67491 | 21592 ft | 293 kts | 65° |
| 2026-05-07 16:02 | 53.45678 | 8.70583 | 21295 ft | 291 kts | 65° |
| 2026-05-07 16:02 | 53.46499 | 8.73617 | 21033 ft | 288 kts | 65° |
| 2026-05-07 16:02 | 53.47325 | 8.76682 | 20682 ft | 288 kts | 65° |
| 2026-05-07 16:02 | 53.48147 | 8.79740 | 20393 ft | 286 kts | 65° |
| 2026-05-07 16:03 | 53.48958 | 8.82768 | 20104 ft | 284 kts | 65° |
| 2026-05-07 16:03 | 53.49769 | 8.85797 | 19755 ft | 285 kts | 65° |
| 2026-05-07 16:03 | 53.50578 | 8.88821 | 19494 ft | 281 kts | 65° |
| 2026-05-07 16:03 | 53.51366 | 8.91772 | 19248 ft | 279 kts | 65° |
| 2026-05-07 16:04 | 53.52159 | 8.94745 | 18948 ft | 278 kts | 65° |
| 2026-05-07 16:04 | 53.52959 | 8.97692 | 18688 ft | 276 kts | 62° |
| 2026-05-07 16:04 | 53.53986 | 9.00382 | 18419 ft | 273 kts | 49° |
| 2026-05-07 16:04 | 53.55320 | 9.02641 | 18087 ft | 271 kts | 41° |
| 2026-05-07 16:05 | 53.56770 | 9.04664 | 17777 ft | 270 kts | 37° |
| 2026-05-07 16:05 | 53.58271 | 9.06542 | 17465 ft | 268 kts | 34° |
| 2026-05-07 16:05 | 53.59795 | 9.08346 | 17148 ft | 267 kts | 34° |
| 2026-05-07 16:05 | 53.61323 | 9.10118 | 16838 ft | 266 kts | 33° |
| 2026-05-07 16:06 | 53.62844 | 9.11884 | 16541 ft | 265 kts | 34° |
| 2026-05-07 16:06 | 53.64358 | 9.13658 | 16233 ft | 264 kts | 34° |
| 2026-05-07 16:06 | 53.65855 | 9.15429 | 15939 ft | 263 kts | 34° |
| 2026-05-07 16:06 | 53.67347 | 9.17207 | 15651 ft | 261 kts | 34° |
| 2026-05-07 16:07 | 53.68826 | 9.18981 | 15356 ft | 261 kts | 34° |
| 2026-05-07 16:07 | 53.70285 | 9.20736 | 15069 ft | 260 kts | 35° |
| 2026-05-07 16:07 | 53.71750 | 9.22501 | 14801 ft | 258 kts | 35° |
| 2026-05-07 16:07 | 53.73212 | 9.24266 | 14520 ft | 258 kts | 34° |
| 2026-05-07 16:08 | 53.74670 | 9.26024 | 14256 ft | 257 kts | 35° |
| 2026-05-07 16:08 | 53.76123 | 9.27780 | 14009 ft | 255 kts | 35° |
| 2026-05-07 16:08 | 53.77564 | 9.29521 | 13726 ft | 255 kts | 34° |
| 2026-05-07 16:08 | 53.78904 | 9.31478 | 13434 ft | 254 kts | 49° |
| 2026-05-07 16:09 | 53.79825 | 9.34004 | 13171 ft | 253 kts | 70° |
| 2026-05-07 16:09 | 53.80103 | 9.36875 | 12885 ft | 252 kts | 94° |
| 2026-05-07 16:09 | 53.79682 | 9.39730 | 12615 ft | 250 kts | 112° |
| 2026-05-07 16:09 | 53.78984 | 9.42417 | 12380 ft | 249 kts | 115° |
| 2026-05-07 16:10 | 53.78241 | 9.45054 | 12147 ft | 247 kts | 116° |
| 2026-05-07 16:10 | 53.77498 | 9.47666 | 11900 ft | 246 kts | 116° |
| 2026-05-07 16:10 | 53.76760 | 9.50275 | 11660 ft | 245 kts | 115° |
| 2026-05-07 16:10 | 53.76037 | 9.52842 | 11426 ft | 245 kts | 115° |
| 2026-05-07 16:11 | 53.75307 | 9.55434 | 11190 ft | 244 kts | 115° |
| 2026-05-07 16:11 | 53.74569 | 9.58013 | 10947 ft | 243 kts | 116° |
| 2026-05-07 16:11 | 53.73813 | 9.60559 | 10770 ft | 241 kts | 117° |
| 2026-05-07 16:11 | 53.73029 | 9.63055 | 10556 ft | 240 kts | 118° |
| 2026-05-07 16:12 | 53.72192 | 9.65498 | 10319 ft | 241 kts | 121° |
| 2026-05-07 16:12 | 53.71090 | 9.67518 | 9263 ft | 244 kts | 158° |
| 2026-05-07 16:12 | 53.69577 | 9.67221 | 4350 ft | 150 kts | 165° |
| 2026-05-07 16:12 | 53.68752 | 9.67249 | 40 ft | 7 kts | 207° |
| 2026-05-07 16:13 | 53.68753 | 9.67249 | 38 ft | 0 kts | 209° |